createdAt,value
2023-09-08T00:02:04.635Z,99134.28
2023-09-08T00:04:31.501Z,99134.55
2023-09-08T00:06:58.314Z,99137.09
2023-09-08T00:09:25.118Z,99136.71
2023-09-08T00:11:51.770Z,99135.59
2023-09-08T00:14:18.819Z,99139.11
2023-09-08T00:16:45.571Z,99133.36
2023-09-08T00:19:13.238Z,99133.89
2023-09-08T00:21:40.110Z,99130.34
2023-09-08T00:24:07.144Z,99134.28
2023-09-08T00:26:34.396Z,99132.62
2023-09-08T00:29:01.396Z,99131.31
2023-09-08T00:31:28.190Z,99135.26
2023-09-08T00:33:55.018Z,99138.44
2023-09-08T00:36:21.951Z,99140.06
2023-09-08T00:38:48.637Z,99135.48
2023-09-08T00:41:15.403Z,99133.04
2023-09-08T00:43:42.335Z,99131.61
2023-09-08T00:46:10.685Z,99127.04
2023-09-08T00:48:38.627Z,99128.88
2023-09-08T00:51:05.964Z,99129.08
2023-09-08T00:53:33.092Z,99134.84
2023-09-08T00:56:01.250Z,99137.23
2023-09-08T00:58:28.037Z,99134.90
2023-09-08T01:00:54.800Z,99134.05
2023-09-08T01:03:21.803Z,99135.19
2023-09-08T01:05:49.111Z,99136.21
2023-09-08T01:08:17.001Z,99133.20
2023-09-08T01:10:44.128Z,99131.94
2023-09-08T01:13:10.984Z,99127.63
2023-09-08T01:15:38.181Z,99127.80
2023-09-08T01:18:05.674Z,99127.14
2023-09-08T01:20:41.149Z,99129.77
2023-09-08T01:23:19.270Z,99132.35
2023-09-08T01:25:59.777Z,99131.64
2023-09-08T01:28:28.283Z,99129.39
2023-09-08T01:30:57.343Z,99131.52
2023-09-08T01:33:24.898Z,99130.53
2023-09-08T01:35:52.564Z,99128.86
2023-09-08T01:38:19.325Z,99128.80
2023-09-08T01:40:46.155Z,99127.55
2023-09-08T01:43:12.898Z,99130.81
2023-09-08T01:45:39.772Z,99130.96
2023-09-08T01:48:06.780Z,99128.85
2023-09-08T01:50:33.456Z,99124.30
2023-09-08T01:53:00.201Z,99128.02
2023-09-08T01:55:26.852Z,99127.89
2023-09-08T01:57:53.645Z,99124.13
2023-09-08T02:00:20.585Z,99122.14
2023-09-08T02:02:47.223Z,99118.75
2023-09-08T02:05:14.040Z,99120.00
2023-09-08T02:07:40.980Z,99118.20
2023-09-08T02:10:08.040Z,99115.96
2023-09-08T02:12:34.783Z,99119.50
2023-09-08T02:15:01.481Z,99117.85
2023-09-08T02:17:28.496Z,99116.38
2023-09-08T02:19:55.236Z,99114.67
2023-09-08T02:22:21.969Z,99114.96
2023-09-08T02:24:48.625Z,99111.87
2023-09-08T02:27:15.528Z,99109.08
2023-09-08T02:29:42.365Z,99112.41
2023-09-08T02:32:08.894Z,99108.19
2023-09-08T02:34:37.025Z,99107.02
2023-09-08T02:37:03.880Z,99110.55
2023-09-08T02:39:30.557Z,99110.33
2023-09-08T02:41:57.468Z,99111.26
2023-09-08T02:44:24.114Z,99112.62
2023-09-08T02:46:51.386Z,99116.30
2023-09-08T02:49:18.209Z,99107.95
2023-09-08T02:51:44.936Z,99106.38
2023-09-08T02:54:11.819Z,99106.88
2023-09-08T02:56:38.469Z,99104.88
2023-09-08T02:59:05.208Z,99106.93
2023-09-08T03:01:32.038Z,99104.11
2023-09-08T03:03:59.090Z,99101.09
2023-09-08T03:06:25.962Z,99094.89
2023-09-08T03:08:52.704Z,99093.44
2023-09-08T03:11:19.451Z,99094.88
2023-09-08T03:13:46.210Z,99092.77
2023-09-08T03:16:13.179Z,99088.91
2023-09-08T03:18:40.023Z,99085.77
2023-09-08T03:21:07.778Z,99085.09
2023-09-08T03:23:34.527Z,99082.89
2023-09-08T03:26:01.629Z,99085.52
2023-09-08T03:28:28.313Z,99089.63
2023-09-08T03:30:55.275Z,99091.63
2023-09-08T03:33:22.343Z,99092.61
2023-09-08T03:35:49.483Z,99087.23
2023-09-08T03:38:16.125Z,99089.11
2023-09-08T03:40:42.969Z,99092.67
2023-09-08T03:43:09.754Z,99093.30
2023-09-08T03:45:36.476Z,99093.88
2023-09-08T03:48:03.457Z,99093.50
2023-09-08T03:50:31.210Z,99093.84
2023-09-08T03:52:58.292Z,99098.05
2023-09-08T03:55:25.323Z,99098.23
2023-09-08T03:57:52.079Z,99100.02
2023-09-08T04:00:19.075Z,99093.67
2023-09-08T04:02:46.226Z,99097.21
2023-09-08T04:05:13.046Z,99091.86
2023-09-08T04:07:39.872Z,99090.33
2023-09-08T04:10:07.538Z,99092.75
2023-09-08T04:12:34.390Z,99095.36
2023-09-08T04:15:01.148Z,99091.92
2023-09-08T04:17:27.881Z,99092.53
2023-09-08T04:19:54.852Z,99086.92
2023-09-08T04:22:21.895Z,99085.62
2023-09-08T04:24:48.628Z,99082.61
2023-09-08T04:27:15.968Z,99080.76
2023-09-08T04:29:43.038Z,99078.58
2023-09-08T04:32:09.628Z,99078.10
2023-09-08T04:34:41.041Z,99073.34
2023-09-08T04:37:08.528Z,99076.84
2023-09-08T04:39:36.405Z,99078.20
2023-09-08T04:42:03.336Z,99075.89
2023-09-08T04:44:29.964Z,99074.67
2023-09-08T04:46:56.667Z,99075.98
2023-09-08T04:49:23.362Z,99073.23
2023-09-08T04:51:50.019Z,99074.30
2023-09-08T04:54:16.866Z,99070.77
2023-09-08T04:56:43.594Z,99072.26
2023-09-08T04:59:10.464Z,99081.33
2023-09-08T05:01:37.114Z,99080.70
2023-09-08T05:04:04.443Z,99077.93
2023-09-08T05:06:31.216Z,99076.76
2023-09-08T05:09:00.004Z,99074.52
2023-09-08T05:11:26.917Z,99079.96
2023-09-08T05:13:53.634Z,99078.84
2023-09-08T05:16:21.188Z,99075.97
2023-09-08T05:18:48.092Z,99074.98
2023-09-08T05:21:14.787Z,99074.46
2023-09-08T05:23:41.525Z,99070.85
2023-09-08T05:26:08.306Z,99071.73
2023-09-08T05:28:37.152Z,99070.36
2023-09-08T05:31:05.757Z,99077.14
2023-09-08T05:33:32.639Z,99068.75
2023-09-08T05:35:59.436Z,99072.52
2023-09-08T05:38:26.101Z,99071.47
2023-09-08T05:40:52.833Z,99069.60
2023-09-08T05:43:19.503Z,99067.65
2023-09-08T05:45:46.316Z,99069.08
2023-09-08T05:48:13.947Z,99077.04
2023-09-08T05:50:41.065Z,99082.52
2023-09-08T05:53:07.797Z,99077.72
2023-09-08T05:55:34.437Z,99082.98
2023-09-08T05:58:01.188Z,99084.63
2023-09-08T06:00:27.944Z,99081.21
2023-09-08T06:02:54.871Z,99085.42
2023-09-08T06:05:21.628Z,99086.24
2023-09-08T06:08:01.056Z,99087.98
2023-09-08T06:10:32.356Z,99087.56
2023-09-08T06:12:59.061Z,99087.54
2023-09-08T06:15:25.838Z,99082.54
2023-09-08T06:17:52.740Z,99085.46
2023-09-08T06:20:19.530Z,99084.26
2023-09-08T06:22:46.371Z,99089.20
2023-09-08T06:25:13.200Z,99080.34
2023-09-08T06:27:40.562Z,99080.58
2023-09-08T06:30:08.021Z,99076.12
2023-09-08T06:32:34.912Z,99075.04
2023-09-08T06:35:01.723Z,99073.45
2023-09-08T06:37:28.355Z,99068.79
2023-09-08T06:39:56.231Z,99068.05
2023-09-08T06:42:22.998Z,99070.52
2023-09-08T06:44:49.717Z,99069.19
2023-09-08T06:47:16.362Z,99066.83
2023-09-08T06:49:43.262Z,99067.88
2023-09-08T06:52:09.975Z,99065.56
2023-09-08T06:54:36.628Z,99066.92
2023-09-08T06:57:03.477Z,99070.26
2023-09-08T06:59:30.224Z,99066.61
2023-09-08T07:01:56.969Z,99063.64
2023-09-08T07:04:24.242Z,99063.92
2023-09-08T07:06:51.073Z,99064.31
2023-09-08T07:09:17.816Z,99065.48
2023-09-08T07:11:44.474Z,99065.88
2023-09-08T07:14:11.209Z,99064.71
2023-09-08T07:16:38.038Z,99057.77
2023-09-08T07:19:05.476Z,99052.45
2023-09-08T07:21:32.160Z,99053.95
2023-09-08T07:23:58.807Z,99051.77
2023-09-08T07:26:25.452Z,99048.64
2023-09-08T07:28:52.301Z,99050.51
2023-09-08T07:31:19.058Z,99049.08
2023-09-08T07:33:45.753Z,99043.66
2023-09-08T07:36:12.672Z,99048.23
2023-09-08T07:38:39.540Z,99044.64
2023-09-08T07:41:06.445Z,99048.00
2023-09-08T07:43:33.126Z,99046.95
2023-09-08T07:45:59.878Z,99047.47
2023-09-08T07:48:26.942Z,99046.12
2023-09-08T07:50:53.846Z,99046.09
2023-09-08T07:53:20.509Z,99044.88
2023-09-08T07:55:47.247Z,99042.01
2023-09-08T07:58:14.236Z,99040.44
2023-09-08T08:00:41.035Z,99044.73
2023-09-08T08:03:07.817Z,99042.48
2023-09-08T08:05:34.609Z,99037.74
2023-09-08T08:08:01.448Z,99037.70
2023-09-08T08:10:28.420Z,99033.45
2023-09-08T08:12:55.163Z,99029.96
2023-09-08T08:15:22.262Z,99027.80
2023-09-08T08:17:49.289Z,99027.61
2023-09-08T08:20:16.238Z,99025.52
2023-09-08T08:22:42.945Z,99029.92
2023-09-08T08:25:11.624Z,99025.46
2023-09-08T08:27:41.000Z,99018.23
2023-09-08T08:30:08.720Z,99016.48
2023-09-08T08:32:35.579Z,99016.30
2023-09-08T08:35:02.419Z,99014.79
2023-09-08T08:37:29.807Z,99012.84
2023-09-08T08:39:56.454Z,99010.41
2023-09-08T08:42:23.133Z,99005.69
2023-09-08T08:44:50.644Z,99005.60
2023-09-08T08:47:18.074Z,99001.95
2023-09-08T08:49:45.706Z,98999.70
2023-09-08T08:52:12.835Z,98999.41
2023-09-08T08:54:40.723Z,98997.97
2023-09-08T08:57:08.410Z,98991.99
2023-09-08T08:59:35.228Z,98990.09
2023-09-08T09:02:03.937Z,98990.45
2023-09-08T09:04:31.013Z,98994.33
2023-09-08T09:06:58.421Z,98990.89
2023-09-08T09:09:30.014Z,98985.83
2023-09-08T09:11:56.959Z,98987.39
2023-09-08T09:14:23.849Z,98985.61
2023-09-08T09:16:50.871Z,98982.65
2023-09-08T09:19:26.568Z,98981.62
2023-09-08T09:21:53.347Z,98976.80
2023-09-08T09:24:32.379Z,98977.48
2023-09-08T09:26:59.213Z,98973.38
2023-09-08T09:29:26.084Z,98969.60
2023-09-08T09:31:58.005Z,98968.80
2023-09-08T09:34:25.179Z,98968.39
2023-09-08T09:36:52.845Z,98964.58
2023-09-08T09:39:23.903Z,98961.05
2023-09-08T09:41:54.753Z,98960.45
2023-09-08T09:44:23.055Z,98956.04
2023-09-08T09:46:50.204Z,98957.67
2023-09-08T09:49:17.791Z,98950.77
2023-09-08T09:51:54.424Z,98948.71
2023-09-08T09:54:21.177Z,98946.21
2023-09-08T09:56:49.657Z,98942.55
2023-09-08T09:59:18.048Z,98942.09
2023-09-08T10:01:45.712Z,98939.61
2023-09-08T10:04:13.700Z,98938.75
2023-09-08T10:06:40.912Z,98937.92
2023-09-08T10:09:08.294Z,98935.82
2023-09-08T10:11:49.778Z,98932.02
2023-09-08T10:14:18.270Z,98933.71
2023-09-08T10:16:46.737Z,98930.57
2023-09-08T10:19:13.708Z,98930.62
2023-09-08T10:21:47.466Z,98928.23
2023-09-08T10:24:39.579Z,98926.88
2023-09-08T10:27:06.518Z,98925.95
2023-09-08T10:29:34.074Z,98923.61
2023-09-08T10:32:02.142Z,98919.41
2023-09-08T10:34:31.089Z,98919.50
2023-09-08T10:36:58.103Z,98915.24
2023-09-08T10:39:37.889Z,98911.42
2023-09-08T10:42:24.892Z,98904.23
2023-09-08T10:44:51.607Z,98910.58
2023-09-08T10:47:24.821Z,98906.17
2023-09-08T10:49:52.694Z,98908.41
2023-09-08T10:52:22.944Z,98904.19
2023-09-08T10:54:51.345Z,98906.20
2023-09-08T10:57:29.004Z,98905.98
2023-09-08T10:59:58.187Z,98905.95
2023-09-08T11:02:40.153Z,98903.83
2023-09-08T11:05:11.982Z,98900.51
2023-09-08T11:07:39.566Z,98895.17
2023-09-08T11:10:07.567Z,98889.92
2023-09-08T11:12:34.880Z,98889.02
2023-09-08T11:15:03.723Z,98885.92
2023-09-08T11:17:30.471Z,98888.67
2023-09-08T11:19:57.885Z,98887.27
2023-09-08T11:22:26.457Z,98882.77
2023-09-08T11:24:54.550Z,98889.22
2023-09-08T11:27:22.731Z,98886.15
2023-09-08T11:29:50.713Z,98881.56
2023-09-08T11:32:17.469Z,98882.80
2023-09-08T11:34:44.202Z,98876.64
2023-09-08T11:37:11.394Z,98875.10
2023-09-08T11:39:39.840Z,98880.34
2023-09-08T11:42:08.324Z,98877.07
2023-09-08T11:44:36.831Z,98874.95
2023-09-08T11:47:05.140Z,98870.14
2023-09-08T11:49:39.052Z,98870.55
2023-09-08T11:52:06.734Z,98868.48
2023-09-08T11:54:36.200Z,98869.73
2023-09-08T11:57:05.741Z,98867.66
2023-09-08T11:59:34.769Z,98866.98
2023-09-08T12:02:02.069Z,98863.52
2023-09-08T12:04:29.159Z,98862.23
2023-09-08T12:06:56.504Z,98865.64
2023-09-08T12:09:24.156Z,98865.42
2023-09-08T12:11:51.400Z,98859.94
2023-09-08T12:14:18.142Z,98861.29
2023-09-08T12:16:45.070Z,98855.92
2023-09-08T12:19:31.611Z,98849.45
2023-09-08T12:22:03.194Z,98845.35
2023-09-08T12:24:54.699Z,98846.73
2023-09-08T12:27:21.346Z,98848.31
2023-09-08T12:29:59.054Z,98841.02
2023-09-08T12:32:27.031Z,98840.50
2023-09-08T12:34:54.078Z,98839.11
2023-09-08T12:37:24.855Z,98834.20
2023-09-08T12:39:52.343Z,98838.13
2023-09-08T12:42:19.658Z,98830.84
2023-09-08T12:44:46.853Z,98829.34
2023-09-08T12:47:13.703Z,98827.30
2023-09-08T12:49:40.954Z,98819.29
2023-09-08T12:52:07.786Z,98817.67
2023-09-08T12:54:34.535Z,98817.70
2023-09-08T12:57:01.266Z,98816.35
2023-09-08T12:59:28.206Z,98812.27
2023-09-08T13:01:55.065Z,98810.59
2023-09-08T13:04:21.807Z,98807.81
2023-09-08T13:06:48.480Z,98802.58
2023-09-08T13:09:15.196Z,98803.89
2023-09-08T13:11:43.068Z,98803.14
2023-09-08T13:14:09.948Z,98802.36
2023-09-08T13:16:39.609Z,98802.48
2023-09-08T13:19:06.371Z,98807.48
2023-09-08T13:21:33.013Z,98800.41
2023-09-08T13:23:59.658Z,98801.65
2023-09-08T13:26:26.403Z,98800.45
2023-09-08T13:28:53.523Z,98796.80
2023-09-08T13:31:20.719Z,98798.45
2023-09-08T13:33:47.944Z,98799.37
2023-09-08T13:36:14.828Z,98799.05
2023-09-08T13:38:41.568Z,98794.66
2023-09-08T13:41:08.212Z,98790.42
2023-09-08T13:43:35.061Z,98790.19
2023-09-08T13:46:01.816Z,98792.48
2023-09-08T13:48:28.885Z,98793.02
2023-09-08T13:50:56.401Z,98793.49
2023-09-08T13:53:40.604Z,98793.63
2023-09-08T13:56:10.088Z,98790.59
2023-09-08T13:58:48.533Z,98788.50
2023-09-08T14:01:20.698Z,98787.35
2023-09-08T14:06:21.360Z,98785.67
2023-09-08T14:11:27.634Z,98777.72
2023-09-08T14:14:02.403Z,98776.89
2023-09-08T14:16:29.545Z,98773.90
2023-09-08T14:18:56.270Z,98774.94
2023-09-08T14:21:22.916Z,98776.75
2023-09-08T14:23:49.698Z,98774.59
2023-09-08T14:26:16.585Z,98774.48
2023-09-08T14:28:43.464Z,98775.77
2023-09-08T14:31:10.201Z,98775.31
2023-09-08T14:33:37.381Z,98772.71
2023-09-08T14:36:04.579Z,98767.75
2023-09-08T14:38:31.362Z,98764.26
2023-09-08T14:41:00.187Z,98758.25
2023-09-08T14:43:28.036Z,98756.95
2023-09-08T14:45:55.589Z,98761.30
2023-09-08T14:48:22.417Z,98754.66
2023-09-08T14:50:49.306Z,98756.42
2023-09-08T14:53:17.327Z,98751.79
2023-09-08T14:55:44.126Z,98751.25
2023-09-08T14:58:11.902Z,98747.64
2023-09-08T15:00:38.731Z,98745.42
2023-09-08T15:03:06.601Z,98748.34
2023-09-08T15:05:34.592Z,98746.53
2023-09-08T15:08:01.819Z,98742.80
2023-09-08T15:10:29.250Z,98737.81
2023-09-08T15:12:56.206Z,98739.53
2023-09-08T15:15:22.933Z,98736.04
2023-09-08T15:17:49.659Z,98731.70
2023-09-08T15:20:16.503Z,98737.59
2023-09-08T15:22:43.175Z,98737.95
2023-09-08T15:25:10.607Z,98733.00
2023-09-08T15:27:37.244Z,98733.96
2023-09-08T15:30:04.501Z,98731.50
2023-09-08T15:32:31.165Z,98731.03
2023-09-08T15:34:57.791Z,98728.95
2023-09-08T15:37:24.483Z,98724.48
2023-09-08T15:39:51.370Z,98729.08
2023-09-08T15:42:17.971Z,98731.44
2023-09-08T15:44:44.671Z,98725.64
2023-09-08T15:47:11.411Z,98726.58
2023-09-08T15:49:38.085Z,98722.11
2023-09-08T15:52:15.588Z,98721.19
2023-09-08T15:54:43.904Z,98721.48
2023-09-08T15:57:10.744Z,98723.16
2023-09-08T15:59:37.448Z,98719.19
2023-09-08T16:02:04.476Z,98717.30
2023-09-08T16:04:31.506Z,98720.80
2023-09-08T16:06:58.298Z,98714.94
2023-09-08T16:09:24.941Z,98714.15
2023-09-08T16:11:51.597Z,98713.22
2023-09-08T16:14:18.233Z,98712.08
2023-09-08T16:16:44.992Z,98707.41
2023-09-08T16:19:11.933Z,98704.52
2023-09-08T16:21:38.570Z,98702.60
2023-09-08T16:24:05.414Z,98700.23
2023-09-08T16:26:32.088Z,98702.55
2023-09-08T16:28:58.812Z,98704.46
2023-09-08T16:31:25.479Z,98707.80
2023-09-08T16:33:52.197Z,98704.44
2023-09-08T16:36:18.946Z,98706.32
2023-09-08T16:38:45.696Z,98708.36
2023-09-08T16:41:12.349Z,98706.30
2023-09-08T16:43:39.255Z,98711.54
2023-09-08T16:46:06.171Z,98713.27
2023-09-08T16:48:32.973Z,98715.40
2023-09-08T16:50:59.617Z,98714.14
2023-09-08T16:53:26.280Z,98717.52
2023-09-08T16:55:53.056Z,98715.11
2023-09-08T16:58:19.775Z,98716.39
2023-09-08T17:00:46.839Z,98716.85
2023-09-08T17:03:13.609Z,98716.13
2023-09-08T17:05:42.760Z,98716.82
2023-09-08T17:08:10.649Z,98718.98
2023-09-08T17:10:37.466Z,98718.05
2023-09-08T17:13:04.274Z,98717.07
2023-09-08T17:15:31.045Z,98718.60
2023-09-08T17:17:57.817Z,98720.66
2023-09-08T17:20:24.663Z,98719.27
2023-09-08T17:22:51.652Z,98719.27
2023-09-08T17:25:18.391Z,98722.58
2023-09-08T17:27:45.102Z,98722.08
2023-09-08T17:30:12.499Z,98726.98
2023-09-08T17:32:39.351Z,98727.80
2023-09-08T17:35:06.715Z,98729.52
2023-09-08T17:37:33.562Z,98730.67
2023-09-08T17:40:00.309Z,98733.00
2023-09-08T17:42:26.949Z,98735.94
2023-09-08T17:44:53.593Z,98740.29
2023-09-08T17:47:20.335Z,98743.16
2023-09-08T17:49:46.980Z,98743.17
2023-09-08T17:52:13.663Z,98742.55
2023-09-08T17:54:40.402Z,98747.71
2023-09-08T17:57:07.127Z,98747.94
2023-09-08T17:59:33.903Z,98752.85
2023-09-08T18:02:00.785Z,98753.31
2023-09-08T18:04:27.781Z,98757.48
2023-09-08T18:06:54.693Z,98759.51
2023-09-08T18:09:21.668Z,98761.09
2023-09-08T18:11:48.420Z,98765.23
2023-09-08T18:14:15.077Z,98764.70
2023-09-08T18:16:42.046Z,98771.22
2023-09-08T18:19:08.960Z,98766.59
2023-09-08T18:21:35.688Z,98765.94
2023-09-08T18:24:02.658Z,98769.52
2023-09-08T18:26:29.300Z,98771.67
2023-09-08T18:28:55.997Z,98766.46
2023-09-08T18:31:22.877Z,98767.41
2023-09-08T18:33:49.686Z,98765.88
2023-09-08T18:36:16.389Z,98767.70
2023-09-08T18:38:43.128Z,98764.08
2023-09-08T18:41:09.874Z,98761.20
2023-09-08T18:43:36.727Z,98763.40
2023-09-08T18:46:03.672Z,98767.58
2023-09-08T18:48:30.575Z,98768.67
2023-09-08T18:50:57.289Z,98769.70
2023-09-08T18:53:24.130Z,98773.65
2023-09-08T18:55:51.126Z,98773.11
2023-09-08T18:58:17.822Z,98773.83
2023-09-08T19:00:45.486Z,98774.95
2023-09-08T19:03:13.187Z,98773.44
2023-09-08T19:05:40.108Z,98776.63
2023-09-08T19:08:07.092Z,98774.41
2023-09-08T19:10:34.223Z,98774.56
2023-09-08T19:13:00.860Z,98773.37
2023-09-08T19:15:27.499Z,98774.40
2023-09-08T19:17:54.217Z,98778.05
2023-09-08T19:20:20.985Z,98774.52
2023-09-08T19:22:47.770Z,98774.71
2023-09-08T19:25:14.510Z,98772.81
2023-09-08T19:27:41.236Z,98769.95
2023-09-08T19:30:08.583Z,98771.07
2023-09-08T19:32:36.076Z,98773.30
2023-09-08T19:35:02.837Z,98772.77
2023-09-08T19:37:29.691Z,98772.44
2023-09-08T19:39:56.549Z,98775.52
2023-09-08T19:42:23.441Z,98773.41
2023-09-08T19:44:50.182Z,98775.95
2023-09-08T19:47:17.068Z,98778.40
2023-09-08T19:49:43.775Z,98779.10
2023-09-08T19:52:11.872Z,98778.88
2023-09-08T19:54:38.510Z,98785.23
2023-09-08T19:57:06.194Z,98781.27
2023-09-08T19:59:33.238Z,98785.51
2023-09-08T20:01:59.919Z,98785.21
2023-09-08T20:04:26.664Z,98784.10
2023-09-08T20:06:53.852Z,98787.23
2023-09-08T20:09:21.439Z,98784.02
2023-09-08T20:11:48.084Z,98782.27
2023-09-08T20:14:15.033Z,98783.13
2023-09-08T20:16:41.797Z,98788.83
2023-09-08T20:19:08.426Z,98787.43
2023-09-08T20:21:35.197Z,98788.48
2023-09-08T20:24:01.914Z,98793.34
2023-09-08T20:26:28.667Z,98791.09
2023-09-08T20:28:55.435Z,98792.08
2023-09-08T20:31:22.244Z,98793.21
2023-09-08T20:33:48.889Z,98796.61
2023-09-08T20:36:16.174Z,98796.73
2023-09-08T20:38:43.836Z,98796.90
2023-09-08T20:41:11.675Z,98800.75
2023-09-08T20:43:39.260Z,98803.12
2023-09-08T20:46:06.500Z,98800.98
2023-09-08T20:48:35.508Z,98804.19
2023-09-08T20:51:06.996Z,98805.64
2023-09-08T20:53:35.367Z,98807.20
2023-09-08T20:56:03.135Z,98806.45
2023-09-08T20:58:30.324Z,98812.89
2023-09-08T21:00:58.518Z,98809.82
2023-09-08T21:03:25.931Z,98808.75
2023-09-08T21:05:52.687Z,98805.98
2023-09-08T21:08:20.257Z,98807.63
2023-09-08T21:10:48.120Z,98807.60
2023-09-08T21:13:15.279Z,98804.44
2023-09-08T21:15:42.470Z,98806.78
2023-09-08T21:18:09.753Z,98807.52
2023-09-08T21:20:37.188Z,98806.13
2023-09-08T21:23:04.415Z,98809.17
2023-09-08T21:25:35.703Z,98809.94
2023-09-08T21:28:03.124Z,98808.91
2023-09-08T21:30:30.177Z,98811.84
2023-09-08T21:32:57.270Z,98812.27
2023-09-08T21:35:24.089Z,98813.25
2023-09-08T21:37:50.730Z,98810.23
2023-09-08T21:40:17.635Z,98805.72
2023-09-08T21:42:44.726Z,98804.22
2023-09-08T21:45:11.695Z,98803.55
2023-09-08T21:47:38.494Z,98805.89
2023-09-08T21:50:05.925Z,98802.44
2023-09-08T21:52:38.356Z,98804.70
2023-09-08T21:55:10.084Z,98802.98
2023-09-08T21:57:36.899Z,98807.83
2023-09-08T22:00:04.109Z,98808.44
2023-09-08T22:02:31.138Z,98805.52
2023-09-08T22:04:58.084Z,98809.02
2023-09-08T22:07:25.108Z,98808.08
2023-09-08T22:09:54.830Z,98802.42
2023-09-08T22:12:21.572Z,98803.48
2023-09-08T22:14:51.077Z,98806.42
2023-09-08T22:17:17.936Z,98806.39
2023-09-08T22:19:44.662Z,98804.94
2023-09-08T22:22:11.421Z,98805.20
2023-09-08T22:24:38.105Z,98803.54
2023-09-08T22:27:05.047Z,98806.85
2023-09-08T22:29:32.176Z,98804.73
2023-09-08T22:31:59.096Z,98805.67
2023-09-08T22:34:25.875Z,98805.17
2023-09-08T22:36:52.721Z,98801.59
2023-09-08T22:39:19.570Z,98802.71
2023-09-08T22:41:46.217Z,98801.90
2023-09-08T22:44:13.066Z,98802.27
2023-09-08T22:46:39.934Z,98798.38
2023-09-08T22:49:06.875Z,98794.17
2023-09-08T22:51:33.708Z,98796.42
2023-09-08T22:54:00.466Z,98797.78
2023-09-08T22:56:27.121Z,98798.21
2023-09-08T22:58:53.747Z,98792.95
2023-09-08T23:01:20.605Z,98793.54
2023-09-08T23:03:47.550Z,98792.42
2023-09-08T23:06:14.913Z,98791.77
2023-09-08T23:08:41.756Z,98788.73
2023-09-08T23:11:08.535Z,98791.20
2023-09-08T23:13:35.678Z,98787.73
2023-09-08T23:16:03.011Z,98788.17
2023-09-08T23:18:29.755Z,98792.89
2023-09-08T23:20:56.565Z,98791.38
2023-09-08T23:23:23.366Z,98789.81
2023-09-08T23:25:50.714Z,98788.70
2023-09-08T23:28:17.369Z,98786.67
2023-09-08T23:30:44.048Z,98786.45
2023-09-08T23:33:11.130Z,98784.89
2023-09-08T23:35:38.111Z,98784.65
2023-09-08T23:38:05.061Z,98787.16
2023-09-08T23:40:31.713Z,98788.36
2023-09-08T23:42:58.379Z,98786.39
2023-09-08T23:45:25.198Z,98784.21
2023-09-08T23:47:52.132Z,98779.29
2023-09-08T23:50:19.053Z,98779.79
2023-09-08T23:52:45.867Z,98782.19
2023-09-08T23:55:12.621Z,98783.13
2023-09-08T23:57:39.412Z,98780.02
